Time;durP1;ratioP1;P1;durP2;ratioP2;P2;SDS_P1;SDS_P2;PMS_P1;PMS_P2;Temp;Humidity;BMP_temperature;BMP_pressure;BME280_temperature;BME280_humidity;BME280_pressure;Samples;Min_cycle;Max_cycle;Signal;HPM_P1;HPM_P2
2023/08/24 00:01:17;;;;;;;3.58;3.28;;;;;;;;;;5014781;28;20073;-74
2023/08/24 00:03:47;;;;;;;4.35;3.50;;;;;;;;;;5013605;28;20056;-74
2023/08/24 00:06:13;;;;;;;4.60;3.75;;;;;;;;;;5015524;28;20041;-74
2023/08/24 00:08:39;;;;;;;3.30;3.05;;;;;;;;;;5013791;28;20075;-75
2023/08/24 00:11:06;;;;;;;5.25;3.78;;;;;;;;;;5034533;28;20059;-75
2023/08/24 00:13:32;;;;;;;4.82;3.83;;;;;;;;;;5017555;28;20048;-74
2023/08/24 00:15:58;;;;;;;5.05;3.60;;;;;;;;;;5019605;28;20051;-75
2023/08/24 00:18:25;;;;;;;5.63;3.75;;;;;;;;;;5021058;28;20062;-74
2023/08/24 00:20:51;;;;;;;6.53;4.35;;;;;;;;;;5013845;28;22064;-74
2023/08/24 00:23:18;;;;;;;5.70;4.80;;;;;;;;;;5012816;28;20033;-74
2023/08/24 00:25:44;;;;;;;5.25;4.13;;;;;;;;;;5029099;28;20156;-74
2023/08/24 00:28:10;;;;;;;4.90;4.38;;;;;;;;;;5010988;28;20049;-74
2023/08/24 00:30:37;;;;;;;8.07;4.20;;;;;;;;;;5029321;28;20052;-74
2023/08/24 00:33:04;;;;;;;6.63;4.40;;;;;;;;;;5001568;28;20045;-75
2023/08/24 00:35:30;;;;;;;7.38;4.75;;;;;;;;;;5012308;28;20045;-75
2023/08/24 00:37:56;;;;;;;7.63;4.53;;;;;;;;;;5002199;28;20098;-75
2023/08/24 00:40:22;;;;;;;6.22;4.18;;;;;;;;;;5015898;28;20048;-75
2023/08/24 00:42:49;;;;;;;8.98;4.75;;;;;;;;;;5020900;28;20090;-75
2023/08/24 00:45:15;;;;;;;7.63;5.07;;;;;;;;;;5015288;28;20163;-75
2023/08/24 00:47:43;;;;;;;10.85;6.25;;;;;;;;;;5014523;28;20063;-75
2023/08/24 00:50:09;;;;;;;10.38;4.97;;;;;;;;;;5014312;28;20124;-75
2023/08/24 00:52:40;;;;;;;6.03;5.32;;;;;;;;;;5015336;28;20051;-75
2023/08/24 00:55:07;;;;;;;11.95;6.25;;;;;;;;;;5020413;28;20080;-75
2023/08/24 00:57:33;;;;;;;8.10;4.82;;;;;;;;;;5021503;28;20048;-75
2023/08/24 01:00:10;;;;;;;7.60;5.10;;;;;;;;;;5019265;28;20048;-75
2023/08/24 01:02:37;;;;;;;8.25;5.28;;;;;;;;;;5015075;28;20079;-75
2023/08/24 01:05:06;;;;;;;7.22;6.03;;;;;;;;;;5020335;28;20570;-75
2023/08/24 01:07:37;;;;;;;8.77;5.60;;;;;;;;;;5020078;28;20109;-75
2023/08/24 01:10:06;;;;;;;9.13;5.50;;;;;;;;;;5037380;28;20058;-75
2023/08/24 01:12:41;;;;;;;8.18;5.50;;;;;;;;;;5016857;28;20075;-75
2023/08/24 01:15:15;;;;;;;11.35;6.60;;;;;;;;;;5001083;28;20473;-75
2023/08/24 01:17:43;;;;;;;9.27;6.00;;;;;;;;;;5002787;28;20079;-75
2023/08/24 01:20:10;;;;;;;9.05;6.90;;;;;;;;;;5017647;28;20090;-75
2023/08/24 01:22:42;;;;;;;9.88;6.65;;;;;;;;;;5037293;28;20052;-75
2023/08/24 01:25:12;;;;;;;10.63;6.65;;;;;;;;;;5021265;28;20693;-75
2023/08/24 01:27:40;;;;;;;9.85;6.32;;;;;;;;;;5018781;28;20095;-75
2023/08/24 01:30:06;;;;;;;12.73;7.15;;;;;;;;;;5036788;28;20409;-75
2023/08/24 01:32:32;;;;;;;11.48;7.07;;;;;;;;;;5034973;28;20041;-75
2023/08/24 01:34:59;;;;;;;11.65;7.30;;;;;;;;;;5035674;28;22856;-75
2023/08/24 01:37:26;;;;;;;10.32;6.07;;;;;;;;;;5002007;28;20480;-75
2023/08/24 01:39:58;;;;;;;10.25;6.40;;;;;;;;;;5018135;28;20508;-75
2023/08/24 01:42:27;;;;;;;11.55;7.15;;;;;;;;;;5017419;28;20056;-75
2023/08/24 01:44:58;;;;;;;11.60;7.93;;;;;;;;;;5018137;28;20040;-75
2023/08/24 01:47:24;;;;;;;13.98;7.20;;;;;;;;;;5039070;28;20048;-75
2023/08/24 01:49:51;;;;;;;8.10;6.85;;;;;;;;;;5037235;28;20045;-75
2023/08/24 01:52:18;;;;;;;11.45;8.27;;;;;;;;;;5002620;28;20156;-75
2023/08/24 01:54:44;;;;;;;11.65;8.20;;;;;;;;;;5036459;28;20040;-75
2023/08/24 01:57:11;;;;;;;8.55;6.13;;;;;;;;;;4999125;28;20132;-75
2023/08/24 01:59:37;;;;;;;7.80;6.10;;;;;;;;;;5002199;28;20048;-75
2023/08/24 02:02:03;;;;;;;12.02;6.65;;;;;;;;;;5033635;28;20056;-75
2023/08/24 02:04:29;;;;;;;10.70;6.80;;;;;;;;;;5014280;28;20126;-75
2023/08/24 02:06:55;;;;;;;7.38;6.68;;;;;;;;;;5011269;28;20063;-75
2023/08/24 02:09:21;;;;;;;7.72;6.40;;;;;;;;;;5013471;28;20052;-75
2023/08/24 02:11:47;;;;;;;11.73;6.68;;;;;;;;;;5012515;28;20051;-75
2023/08/24 02:14:13;;;;;;;11.98;6.68;;;;;;;;;;5008899;28;20042;-75
2023/08/24 02:16:39;;;;;;;11.00;7.38;;;;;;;;;;5011323;28;20251;-74
2023/08/24 02:19:05;;;;;;;13.25;7.32;;;;;;;;;;5013212;28;20080;-75
2023/08/24 02:21:31;;;;;;;9.10;6.50;;;;;;;;;;5009195;28;20496;-75
2023/08/24 02:23:57;;;;;;;9.98;6.85;;;;;;;;;;5014318;28;20543;-75
2023/08/24 02:26:23;;;;;;;8.93;7.22;;;;;;;;;;5013994;28;20099;-75
2023/08/24 02:28:49;;;;;;;8.00;7.05;;;;;;;;;;4997653;28;20060;-75
2023/08/24 02:31:16;;;;;;;9.57;6.63;;;;;;;;;;5012109;28;20131;-75
2023/08/24 02:33:42;;;;;;;8.70;7.05;;;;;;;;;;5015288;28;20041;-75
2023/08/24 02:36:08;;;;;;;11.77;7.22;;;;;;;;;;5013195;28;20167;-75
2023/08/24 02:38:34;;;;;;;10.35;7.63;;;;;;;;;;5010871;28;20052;-75
2023/08/24 02:41:02;;;;;;;11.27;8.05;;;;;;;;;;5014242;28;20041;-75
2023/08/24 02:43:28;;;;;;;14.70;7.63;;;;;;;;;;5012706;28;20051;-75
2023/08/24 02:45:54;;;;;;;9.45;7.47;;;;;;;;;;5010995;28;20095;-75
2023/08/24 02:48:20;;;;;;;12.13;8.25;;;;;;;;;;5012327;28;20045;-75
2023/08/24 02:50:47;;;;;;;12.02;7.43;;;;;;;;;;5014360;28;20041;-75
2023/08/24 02:53:13;;;;;;;11.70;7.47;;;;;;;;;;5015605;28;20045;-75
2023/08/24 02:55:39;;;;;;;10.45;7.82;;;;;;;;;;5010655;28;20482;-75
2023/08/24 02:58:06;;;;;;;11.90;7.78;;;;;;;;;;5013223;28;20046;-75
2023/08/24 03:00:32;;;;;;;10.07;8.95;;;;;;;;;;5010111;28;20045;-75
2023/08/24 03:02:58;;;;;;;11.60;8.25;;;;;;;;;;5011789;28;20053;-75
2023/08/24 03:05:24;;;;;;;11.48;7.45;;;;;;;;;;5012994;28;20114;-75
2023/08/24 03:07:51;;;;;;;9.90;7.45;;;;;;;;;;5013220;28;20041;-75
2023/08/24 03:10:17;;;;;;;9.07;7.18;;;;;;;;;;5026259;28;20060;-75
2023/08/24 03:12:43;;;;;;;10.25;7.65;;;;;;;;;;5012891;28;22287;-75
2023/08/24 03:15:09;;;;;;;9.18;7.75;;;;;;;;;;5031997;28;20029;-75
2023/08/24 03:17:35;;;;;;;12.07;8.52;;;;;;;;;;5016199;28;20036;-75
2023/08/24 03:20:02;;;;;;;11.55;7.95;;;;;;;;;;5035528;28;20048;-75
2023/08/24 03:22:28;;;;;;;13.05;8.05;;;;;;;;;;5015933;28;20052;-75
2023/08/24 03:24:54;;;;;;;16.35;7.85;;;;;;;;;;5034633;28;20550;-75
2023/08/24 03:27:20;;;;;;;10.45;7.45;;;;;;;;;;5027832;28;20144;-75
2023/08/24 03:29:46;;;;;;;15.27;7.80;;;;;;;;;;5017534;28;20053;-75
2023/08/24 03:32:12;;;;;;;11.93;8.10;;;;;;;;;;5016130;28;20382;-75
2023/08/24 03:34:38;;;;;;;13.90;7.72;;;;;;;;;;5019704;28;20048;-75
2023/08/24 03:37:04;;;;;;;15.73;8.95;;;;;;;;;;5036979;28;20040;-75
2023/08/24 03:39:30;;;;;;;12.48;8.63;;;;;;;;;;5021199;28;20933;-75
2023/08/24 03:41:56;;;;;;;9.43;8.23;;;;;;;;;;5020752;28;20143;-75
2023/08/24 03:44:22;;;;;;;11.10;7.72;;;;;;;;;;5031982;28;20048;-75
2023/08/24 03:46:48;;;;;;;15.40;8.40;;;;;;;;;;5033865;28;20044;-75
2023/08/24 03:49:14;;;;;;;11.93;8.95;;;;;;;;;;5033738;28;20066;-75
2023/08/24 03:51:40;;;;;;;10.25;7.10;;;;;;;;;;5014982;28;20036;-75
2023/08/24 03:54:06;;;;;;;12.57;6.82;;;;;;;;;;5017267;28;20089;-75
2023/08/24 03:56:33;;;;;;;11.30;7.07;;;;;;;;;;5018876;28;20104;-75
2023/08/24 03:58:59;;;;;;;12.20;8.80;;;;;;;;;;5016220;28;20091;-75
2023/08/24 04:01:25;;;;;;;14.68;8.65;;;;;;;;;;5013752;28;20056;-75
2023/08/24 04:03:51;;;;;;;12.88;8.55;;;;;;;;;;4997913;28;20982;-75
2023/08/24 04:06:21;;;;;;;17.90;8.82;;;;;;;;;;5004542;28;20098;-75
2023/08/24 04:08:47;;;;;;;12.20;8.05;;;;;;;;;;5010599;28;20093;-75
2023/08/24 04:11:13;;;;;;;11.80;7.88;;;;;;;;;;5014464;28;20053;-75
2023/08/24 04:13:39;;;;;;;14.98;8.00;;;;;;;;;;5030719;28;20458;-75
2023/08/24 04:16:05;;;;;;;12.23;7.95;;;;;;;;;;5013748;28;21697;-73
2023/08/24 04:18:32;;;;;;;9.73;7.53;;;;;;;;;;5016081;28;20541;-73
2023/08/24 04:20:58;;;;;;;14.75;8.25;;;;;;;;;;5014647;28;20052;-73
2023/08/24 04:23:25;;;;;;;14.60;8.20;;;;;;;;;;5013881;28;20527;-73
2023/08/24 04:25:51;;;;;;;12.00;7.75;;;;;;;;;;5013516;28;20063;-73
2023/08/24 04:28:17;;;;;;;18.23;8.65;;;;;;;;;;5011776;28;20095;-73
2023/08/24 04:30:53;;;;;;;13.70;8.07;;;;;;;;;;5015770;28;20127;-73
2023/08/24 04:33:20;;;;;;;14.57;8.10;;;;;;;;;;5031486;28;20044;-72
2023/08/24 04:35:47;;;;;;;13.90;10.00;;;;;;;;;;5014087;28;20067;-73
2023/08/24 04:38:13;;;;;;;11.52;8.77;;;;;;;;;;5031592;28;20378;-73
2023/08/24 04:40:47;;;;;;;15.43;9.45;;;;;;;;;;5015938;28;20048;-73
2023/08/24 04:43:13;;;;;;;15.18;9.43;;;;;;;;;;5008822;28;20048;-73
2023/08/24 04:45:39;;;;;;;12.43;8.95;;;;;;;;;;5014925;28;20116;-73
2023/08/24 04:48:05;;;;;;;17.30;10.45;;;;;;;;;;5015467;28;20056;-72
2023/08/24 04:50:31;;;;;;;16.42;8.90;;;;;;;;;;5030975;28;20091;-72
2023/08/24 04:52:57;;;;;;;16.55;9.25;;;;;;;;;;5009331;28;20049;-72
2023/08/24 04:55:23;;;;;;;18.13;9.65;;;;;;;;;;5010925;28;20138;-72
2023/08/24 04:57:50;;;;;;;14.68;8.88;;;;;;;;;;5028176;28;20542;-73
2023/08/24 05:00:16;;;;;;;16.25;10.10;;;;;;;;;;5011112;28;20106;-72
2023/08/24 05:02:45;;;;;;;16.27;9.52;;;;;;;;;;5014075;28;20053;-72
2023/08/24 05:05:11;;;;;;;16.20;9.48;;;;;;;;;;5010173;28;20044;-73
2023/08/24 05:07:40;;;;;;;17.65;10.10;;;;;;;;;;5012634;28;20048;-72
2023/08/24 05:10:07;;;;;;;14.23;10.15;;;;;;;;;;5028454;28;20286;-73
2023/08/24 05:12:35;;;;;;;20.90;11.05;;;;;;;;;;5018498;28;20052;-73
2023/08/24 05:15:06;;;;;;;19.58;10.65;;;;;;;;;;5011691;28;20056;-72
2023/08/24 05:17:32;;;;;;;18.27;10.57;;;;;;;;;;5030196;28;20044;-73
2023/08/24 05:19:59;;;;;;;17.30;10.68;;;;;;;;;;5011366;28;20052;-72
2023/08/24 05:22:25;;;;;;;15.63;11.48;;;;;;;;;;4997526;28;20554;-72
2023/08/24 05:24:51;;;;;;;12.55;10.35;;;;;;;;;;5012622;28;20489;-73
2023/08/24 05:27:17;;;;;;;19.48;11.20;;;;;;;;;;5033410;28;20304;-73
2023/08/24 05:29:43;;;;;;;15.55;11.15;;;;;;;;;;5020660;28;20052;-72
2023/08/24 05:32:09;;;;;;;15.15;10.70;;;;;;;;;;5016007;28;20048;-73
2023/08/24 05:34:36;;;;;;;20.88;11.43;;;;;;;;;;5014623;28;20091;-73
2023/08/24 05:37:02;;;;;;;19.50;11.57;;;;;;;;;;5000519;28;21598;-73
2023/08/24 05:39:28;;;;;;;19.73;12.20;;;;;;;;;;4997919;28;20140;-73
2023/08/24 05:41:54;;;;;;;16.35;11.65;;;;;;;;;;5021681;28;21957;-73
2023/08/24 05:44:21;;;;;;;18.35;12.02;;;;;;;;;;5013519;28;20408;-73
2023/08/24 05:46:47;;;;;;;17.50;12.52;;;;;;;;;;5035704;28;20132;-73
2023/08/24 05:49:13;;;;;;;20.58;12.60;;;;;;;;;;5023503;28;20132;-73
2023/08/24 05:51:39;;;;;;;19.45;12.93;;;;;;;;;;5030711;28;20175;-73
2023/08/24 05:54:06;;;;;;;19.90;12.48;;;;;;;;;;5001452;28;20036;-73
2023/08/24 05:56:32;;;;;;;19.38;12.80;;;;;;;;;;5013538;28;20095;-73
2023/08/24 05:58:58;;;;;;;17.67;12.80;;;;;;;;;;5033778;28;20041;-73
2023/08/24 06:01:24;;;;;;;17.73;13.40;;;;;;;;;;5015113;28;20041;-74
2023/08/24 06:03:51;;;;;;;17.92;13.65;;;;;;;;;;5020310;28;20040;-73
2023/08/24 06:06:17;;;;;;;19.55;13.90;;;;;;;;;;5037482;28;20599;-73
2023/08/24 06:08:43;;;;;;;20.52;14.35;;;;;;;;;;5013518;28;20262;-73
2023/08/24 06:11:10;;;;;;;23.13;14.85;;;;;;;;;;5031088;28;20071;-71
2023/08/24 06:13:36;;;;;;;20.33;14.82;;;;;;;;;;5022582;28;21567;-72
2023/08/24 06:16:02;;;;;;;19.42;14.23;;;;;;;;;;5020786;28;20049;-72
2023/08/24 06:18:28;;;;;;;19.90;13.32;;;;;;;;;;5033028;28;20041;-72
2023/08/24 06:20:55;;;;;;;17.17;12.63;;;;;;;;;;5014813;28;20135;-72
2023/08/24 06:23:21;;;;;;;19.83;12.25;;;;;;;;;;5032237;28;20047;-72
2023/08/24 06:25:47;;;;;;;16.08;10.85;;;;;;;;;;5012814;28;20059;-72
2023/08/24 06:28:14;;;;;;;15.50;10.52;;;;;;;;;;5013429;28;20106;-72
2023/08/24 06:30:40;;;;;;;17.20;10.05;;;;;;;;;;5014460;28;20040;-72
2023/08/24 06:33:07;;;;;;;14.68;9.25;;;;;;;;;;5013011;28;20052;-72
2023/08/24 06:35:34;;;;;;;17.65;9.07;;;;;;;;;;5022434;28;20060;-72
2023/08/24 06:38:00;;;;;;;15.90;9.55;;;;;;;;;;5013633;28;20059;-72
2023/08/24 06:40:26;;;;;;;15.35;7.78;;;;;;;;;;5016039;28;20625;-72
2023/08/24 06:42:52;;;;;;;12.18;7.43;;;;;;;;;;5011195;28;20053;-72
2023/08/24 06:45:18;;;;;;;11.32;6.35;;;;;;;;;;5033932;28;20048;-72
2023/08/24 06:47:45;;;;;;;10.40;6.65;;;;;;;;;;5034230;28;20032;-73
2023/08/24 06:50:11;;;;;;;10.75;6.07;;;;;;;;;;5014724;28;20385;-72
2023/08/24 06:52:37;;;;;;;12.07;6.78;;;;;;;;;;5013058;28;20044;-73
2023/08/24 06:55:04;;;;;;;9.93;5.05;;;;;;;;;;5014805;28;20051;-72
2023/08/24 06:57:30;;;;;;;10.27;4.90;;;;;;;;;;5030850;28;20037;-72
2023/08/24 06:59:56;;;;;;;10.15;4.93;;;;;;;;;;5034392;28;21748;-72
2023/08/24 07:02:23;;;;;;;9.57;4.90;;;;;;;;;;5016765;28;20481;-72
2023/08/24 07:04:49;;;;;;;12.02;5.05;;;;;;;;;;5015636;28;20048;-72
2023/08/24 07:07:15;;;;;;;10.20;4.45;;;;;;;;;;5034247;28;20080;-72
2023/08/24 07:09:41;;;;;;;7.03;4.07;;;;;;;;;;5014630;28;20057;-72
2023/08/24 07:12:09;;;;;;;6.40;4.10;;;;;;;;;;5032886;28;20048;-72
2023/08/24 07:14:36;;;;;;;11.77;4.55;;;;;;;;;;5016874;28;20045;-72
2023/08/24 07:17:02;;;;;;;5.90;3.53;;;;;;;;;;5017170;28;20465;-72
2023/08/24 07:19:29;;;;;;;10.48;4.15;;;;;;;;;;5014554;28;20571;-72
2023/08/24 07:21:55;;;;;;;6.72;3.70;;;;;;;;;;5002922;28;20569;-72
2023/08/24 07:24:25;;;;;;;7.43;3.05;;;;;;;;;;5014918;28;20094;-72
2023/08/24 07:26:52;;;;;;;6.43;3.45;;;;;;;;;;5013904;28;20068;-72
2023/08/24 07:29:18;;;;;;;7.30;5.20;;;;;;;;;;5031418;28;20041;-72
2023/08/24 07:31:44;;;;;;;9.77;4.65;;;;;;;;;;5035526;28;20045;-72
2023/08/24 07:34:10;;;;;;;11.27;5.10;;;;;;;;;;5033052;28;20575;-72
2023/08/24 07:36:36;;;;;;;10.57;6.13;;;;;;;;;;5034712;28;20089;-73
2023/08/24 07:39:02;;;;;;;10.68;5.85;;;;;;;;;;5028737;28;20578;-73
2023/08/24 07:41:28;;;;;;;11.95;5.50;;;;;;;;;;5008384;28;20045;-73
2023/08/24 07:43:54;;;;;;;13.25;5.50;;;;;;;;;;5031156;28;20468;-72
2023/08/24 07:46:20;;;;;;;11.77;5.70;;;;;;;;;;5011801;28;20488;-72
2023/08/24 07:48:46;;;;;;;13.15;6.05;;;;;;;;;;5013055;28;20047;-72
2023/08/24 07:51:13;;;;;;;13.82;6.90;;;;;;;;;;5031620;28;20236;-72
2023/08/24 07:53:39;;;;;;;16.42;7.32;;;;;;;;;;5013674;28;20036;-72
2023/08/24 07:56:05;;;;;;;15.55;6.68;;;;;;;;;;5011008;28;20048;-72
2023/08/24 07:58:32;;;;;;;12.57;7.05;;;;;;;;;;5013940;28;20378;-72
2023/08/24 08:00:58;;;;;;;15.68;6.88;;;;;;;;;;5012393;28;20083;-73
2023/08/24 08:03:24;;;;;;;9.90;6.82;;;;;;;;;;5013618;28;20059;-73
2023/08/24 08:05:50;;;;;;;10.30;7.70;;;;;;;;;;5013740;28;20131;-73
2023/08/24 08:08:17;;;;;;;13.27;7.60;;;;;;;;;;5028216;28;20045;-73
2023/08/24 08:10:43;;;;;;;13.55;7.57;;;;;;;;;;5020731;28;20063;-72
2023/08/24 08:13:12;;;;;;;15.15;8.13;;;;;;;;;;5012976;28;20528;-73
2023/08/24 08:15:39;;;;;;;13.07;7.50;;;;;;;;;;5013319;28;20127;-72
2023/08/24 08:18:05;;;;;;;9.98;7.72;;;;;;;;;;5030853;28;20044;-72
2023/08/24 08:20:31;;;;;;;11.85;7.32;;;;;;;;;;5015191;28;20043;-73
2023/08/24 08:22:57;;;;;;;12.95;6.75;;;;;;;;;;5011536;28;20044;-73
2023/08/24 08:25:24;;;;;;;12.05;7.55;;;;;;;;;;5014668;28;21837;-72
2023/08/24 08:27:50;;;;;;;11.90;8.07;;;;;;;;;;5016766;28;20511;-73
2023/08/24 08:30:16;;;;;;;10.35;7.32;;;;;;;;;;5032676;28;20659;-72
2023/08/24 08:32:42;;;;;;;18.55;8.20;;;;;;;;;;5034609;28;20040;-72
2023/08/24 08:35:09;;;;;;;10.13;6.95;;;;;;;;;;5034122;28;20051;-73
2023/08/24 08:37:37;;;;;;;11.32;7.10;;;;;;;;;;5033650;28;20098;-72
2023/08/24 08:40:09;;;;;;;12.55;7.75;;;;;;;;;;5013267;28;20044;-76
2023/08/24 08:42:36;;;;;;;12.60;7.80;;;;;;;;;;5033277;28;20516;-77
2023/08/24 08:45:03;;;;;;;13.45;8.38;;;;;;;;;;4998129;28;20492;-77
2023/08/24 08:47:29;;;;;;;12.98;7.80;;;;;;;;;;5015677;28;20553;-77
2023/08/24 08:49:56;;;;;;;12.50;7.32;;;;;;;;;;5016460;28;20053;-77
2023/08/24 08:52:24;;;;;;;14.57;6.63;;;;;;;;;;5031415;28;20777;-76
2023/08/24 08:54:51;;;;;;;9.15;7.10;;;;;;;;;;5013213;28;20056;-76
2023/08/24 08:57:18;;;;;;;8.80;7.05;;;;;;;;;;5008585;28;20131;-77
2023/08/24 08:59:44;;;;;;;9.55;6.97;;;;;;;;;;5029867;28;20106;-76
2023/08/24 09:02:13;;;;;;;11.43;6.57;;;;;;;;;;5034400;28;20122;-76
2023/08/24 09:04:40;;;;;;;13.05;6.90;;;;;;;;;;5017144;28;20040;-84
2023/08/24 09:07:10;;;;;;;14.68;7.20;;;;;;;;;;5036034;28;20094;-84
2023/08/24 09:09:36;;;;;;;8.77;6.90;;;;;;;;;;5017534;28;20474;-74
2023/08/24 09:12:04;;;;;;;10.90;6.40;;;;;;;;;;5035011;28;20041;-77
2023/08/24 09:14:30;;;;;;;11.85;6.35;;;;;;;;;;5019963;28;20076;-75
2023/08/24 09:16:56;;;;;;;8.88;5.78;;;;;;;;;;5000863;28;20069;-76
2023/08/24 09:19:28;;;;;;;9.38;6.03;;;;;;;;;;5033702;28;20049;-79
2023/08/24 09:21:57;;;;;;;8.60;5.53;;;;;;;;;;4996681;28;20133;-78
2023/08/24 09:24:31;;;;;;;13.77;6.47;;;;;;;;;;5006805;28;20053;-74
2023/08/24 09:26:57;;;;;;;10.00;6.40;;;;;;;;;;4998310;28;20420;-79
2023/08/24 09:29:23;;;;;;;12.07;6.10;;;;;;;;;;5017122;28;20457;-78
2023/08/24 09:31:51;;;;;;;14.05;6.88;;;;;;;;;;5019855;28;20059;-75
2023/08/24 09:34:20;;;;;;;21.52;6.47;;;;;;;;;;5016377;28;20093;-77
2023/08/24 09:36:46;;;;;;;8.77;5.10;;;;;;;;;;5018239;28;20137;-78
2023/08/24 09:39:13;;;;;;;7.50;5.88;;;;;;;;;;5033154;28;20056;-78
2023/08/24 09:41:42;;;;;;;12.00;6.70;;;;;;;;;;5016476;28;20052;-77
2023/08/24 09:44:09;;;;;;;16.20;6.95;;;;;;;;;;5019606;28;20053;-75
2023/08/24 09:46:38;;;;;;;27.17;7.45;;;;;;;;;;5019788;28;21018;-75
2023/08/24 09:49:09;;;;;;;11.55;6.70;;;;;;;;;;5016379;28;20552;-77
2023/08/24 09:51:35;;;;;;;31.73;8.05;;;;;;;;;;5018857;28;20041;-77
2023/08/24 09:54:08;;;;;;;11.93;6.97;;;;;;;;;;5015559;28;20123;-77
2023/08/24 09:56:36;;;;;;;12.90;7.03;;;;;;;;;;5019071;28;20400;-75
2023/08/24 09:59:05;;;;;;;10.80;6.50;;;;;;;;;;5024353;28;20049;-77
2023/08/24 10:01:31;;;;;;;13.82;6.93;;;;;;;;;;5033625;28;20040;-76
2023/08/24 10:03:58;;;;;;;12.32;7.20;;;;;;;;;;5015004;28;20409;-76
2023/08/24 10:06:26;;;;;;;13.15;7.75;;;;;;;;;;5026095;28;20405;-75
2023/08/24 10:08:55;;;;;;;11.98;7.43;;;;;;;;;;5031771;28;20037;-76
2023/08/24 10:11:25;;;;;;;14.93;8.10;;;;;;;;;;5008447;28;20064;-76
2023/08/24 10:14:11;;;;;;;14.13;7.82;;;;;;;;;;5028143;28;20098;-76
2023/08/24 10:16:38;;;;;;;12.45;7.32;;;;;;;;;;5026715;28;20780;-76
2023/08/24 10:19:04;;;;;;;14.60;8.35;;;;;;;;;;5011566;28;20045;-77
2023/08/24 10:21:31;;;;;;;12.85;7.32;;;;;;;;;;5034351;28;20704;-77
2023/08/24 10:23:57;;;;;;;11.18;7.82;;;;;;;;;;5017828;28;20053;-78
2023/08/24 10:26:24;;;;;;;14.95;8.55;;;;;;;;;;5016054;28;20055;-77
2023/08/24 10:28:51;;;;;;;9.00;7.60;;;;;;;;;;5032716;28;21666;-77
2023/08/24 10:31:18;;;;;;;15.18;8.35;;;;;;;;;;5015653;28;20079;-77
2023/08/24 10:33:46;;;;;;;11.30;7.72;;;;;;;;;;5014102;28;20036;-77
2023/08/24 10:36:14;;;;;;;10.15;7.50;;;;;;;;;;5016302;28;20044;-77
2023/08/24 10:38:43;;;;;;;11.82;7.90;;;;;;;;;;5014438;28;20049;-77
2023/08/24 10:41:12;;;;;;;14.18;7.70;;;;;;;;;;5016073;28;20899;-77
2023/08/24 10:43:38;;;;;;;10.52;6.72;;;;;;;;;;5015152;28;20059;-78
2023/08/24 10:46:05;;;;;;;13.43;6.97;;;;;;;;;;5033235;28;20181;-77
2023/08/24 10:48:32;;;;;;;11.98;7.53;;;;;;;;;;5014941;28;20068;-76
2023/08/24 10:51:17;;;;;;;17.35;7.30;;;;;;;;;;5012408;28;20092;-75
2023/08/24 10:53:47;;;;;;;16.15;6.93;;;;;;;;;;5013721;28;20044;-74
2023/08/24 10:56:14;;;;;;;9.73;7.03;;;;;;;;;;5017771;28;20113;-74
2023/08/24 10:58:41;;;;;;;15.23;8.07;;;;;;;;;;5012742;28;20045;-74
2023/08/24 11:01:07;;;;;;;12.23;8.02;;;;;;;;;;5014569;28;20808;-74
2023/08/24 11:03:33;;;;;;;14.27;8.25;;;;;;;;;;5013991;28;20556;-74
2023/08/24 11:05:59;;;;;;;12.93;8.00;;;;;;;;;;5012138;28;20048;-74
2023/08/24 11:08:45;;;;;;;12.88;8.82;;;;;;;;;;5012725;28;20049;-75
2023/08/24 11:11:21;;;;;;;14.25;8.50;;;;;;;;;;5027647;28;20049;-75
2023/08/24 11:14:05;;;;;;;13.30;8.80;;;;;;;;;;5011241;28;20468;-75
2023/08/24 11:16:42;;;;;;;10.13;8.63;;;;;;;;;;5014256;28;20048;-74
2023/08/24 11:19:09;;;;;;;17.80;9.77;;;;;;;;;;5019035;28;20036;-74
2023/08/24 11:21:35;;;;;;;15.35;8.93;;;;;;;;;;5031544;28;20047;-74
2023/08/24 11:24:02;;;;;;;15.98;10.18;;;;;;;;;;5026472;28;20389;-74
2023/08/24 11:26:30;;;;;;;16.70;10.35;;;;;;;;;;5014502;28;20459;-74
2023/08/24 11:28:57;;;;;;;17.00;9.68;;;;;;;;;;5029798;28;20044;-74
2023/08/24 11:31:26;;;;;;;17.17;10.52;;;;;;;;;;5026637;28;20049;-74
2023/08/24 11:33:56;;;;;;;13.55;9.93;;;;;;;;;;5014444;28;20508;-74
2023/08/24 11:36:23;;;;;;;15.30;9.65;;;;;;;;;;5014440;28;20045;-74
2023/08/24 11:38:53;;;;;;;11.80;9.38;;;;;;;;;;5028566;28;20444;-74
2023/08/24 11:41:22;;;;;;;15.30;10.13;;;;;;;;;;5010732;28;20049;-74
2023/08/24 11:43:51;;;;;;;15.13;9.45;;;;;;;;;;5028930;28;20040;-74
2023/08/24 11:46:17;;;;;;;10.85;9.65;;;;;;;;;;5010499;28;20053;-74
2023/08/24 11:48:44;;;;;;;16.27;10.15;;;;;;;;;;5028203;28;20328;-74
2023/08/24 11:51:13;;;;;;;15.05;9.85;;;;;;;;;;5010961;28;20045;-75
2023/08/24 11:53:40;;;;;;;16.00;9.82;;;;;;;;;;5017989;28;20048;-75
2023/08/24 11:56:08;;;;;;;13.05;9.18;;;;;;;;;;5037662;28;20044;-76
2023/08/24 11:58:34;;;;;;;17.33;8.95;;;;;;;;;;5015544;28;20059;-75
2023/08/24 12:01:01;;;;;;;14.80;9.63;;;;;;;;;;5032334;28;20111;-74
2023/08/24 12:03:29;;;;;;;18.88;9.70;;;;;;;;;;5010838;28;20052;-74
2023/08/24 12:05:59;;;;;;;17.27;9.60;;;;;;;;;;4995862;28;20056;-75
2023/08/24 12:08:26;;;;;;;19.10;10.35;;;;;;;;;;5006643;28;20085;-74
2023/08/24 12:10:52;;;;;;;15.43;9.57;;;;;;;;;;5008296;28;20493;-75
2023/08/24 12:13:18;;;;;;;17.75;9.85;;;;;;;;;;5007967;28;20053;-75
2023/08/24 12:15:47;;;;;;;15.88;9.95;;;;;;;;;;5027765;28;20047;-75
2023/08/24 12:18:14;;;;;;;11.75;9.15;;;;;;;;;;5012200;28;20126;-75
2023/08/24 12:20:43;;;;;;;17.00;9.45;;;;;;;;;;5009857;28;21191;-73
2023/08/24 12:23:11;;;;;;;13.75;9.25;;;;;;;;;;5027989;28;20494;-73
2023/08/24 12:25:47;;;;;;;17.73;9.63;;;;;;;;;;5015418;28;20044;-76
2023/08/24 12:28:16;;;;;;;14.38;9.43;;;;;;;;;;5031470;28;20045;-78
2023/08/24 12:30:46;;;;;;;14.43;9.57;;;;;;;;;;5028703;28;20645;-75
2023/08/24 12:33:22;;;;;;;13.38;9.15;;;;;;;;;;5030156;28;20084;-75
2023/08/24 12:35:48;;;;;;;12.00;9.82;;;;;;;;;;5029945;28;20045;-67
2023/08/24 12:38:14;;;;;;;12.20;9.18;;;;;;;;;;5013389;28;20502;-72
2023/08/24 12:40:42;;;;;;;17.13;10.00;;;;;;;;;;5012363;28;20048;-72
2023/08/24 12:43:08;;;;;;;12.85;9.38;;;;;;;;;;5032487;28;20285;-73
2023/08/24 12:45:35;;;;;;;13.90;9.20;;;;;;;;;;5013195;28;20262;-69
2023/08/24 12:48:02;;;;;;;12.88;9.23;;;;;;;;;;5012957;28;20523;-69
2023/08/24 12:50:28;;;;;;;14.82;10.00;;;;;;;;;;5027652;28;21413;-69
2023/08/24 12:52:57;;;;;;;13.18;9.68;;;;;;;;;;5030487;28;20041;-68
2023/08/24 12:55:23;;;;;;;15.30;9.65;;;;;;;;;;5013297;28;20127;-68
2023/08/24 12:57:49;;;;;;;15.20;10.48;;;;;;;;;;5034272;28;20097;-68
2023/08/24 13:00:16;;;;;;;17.50;9.68;;;;;;;;;;5033277;28;20435;-68
2023/08/24 13:02:42;;;;;;;14.48;9.30;;;;;;;;;;5016554;28;20078;-69
2023/08/24 13:05:08;;;;;;;12.52;9.15;;;;;;;;;;5031652;28;20052;-68
2023/08/24 13:07:34;;;;;;;12.88;8.52;;;;;;;;;;5032895;28;20062;-68
2023/08/24 13:10:00;;;;;;;12.25;8.85;;;;;;;;;;5032294;28;20055;-68
2023/08/24 13:12:26;;;;;;;12.82;9.00;;;;;;;;;;5014441;28;22164;-68
2023/08/24 13:14:53;;;;;;;17.98;9.65;;;;;;;;;;5033722;28;20048;-69
2023/08/24 13:17:19;;;;;;;11.68;9.45;;;;;;;;;;5035202;28;20041;-70
2023/08/24 13:19:45;;;;;;;19.63;10.10;;;;;;;;;;5032806;28;20076;-69
2023/08/24 13:22:11;;;;;;;12.27;9.13;;;;;;;;;;5015446;28;20055;-69
2023/08/24 13:24:39;;;;;;;10.48;7.97;;;;;;;;;;5037376;28;20059;-70
2023/08/24 13:27:10;;;;;;;12.40;9.35;;;;;;;;;;5036713;28;20188;-69
2023/08/24 13:29:36;;;;;;;11.85;8.30;;;;;;;;;;5039545;28;20127;-70
2023/08/24 13:32:02;;;;;;;15.35;8.82;;;;;;;;;;5019179;28;20048;-70
2023/08/24 13:34:28;;;;;;;15.73;9.00;;;;;;;;;;5037041;28;20056;-70
2023/08/24 13:36:54;;;;;;;13.35;9.23;;;;;;;;;;5032104;28;20049;-69
2023/08/24 13:39:20;;;;;;;14.55;10.07;;;;;;;;;;5019279;28;20079;-70
2023/08/24 13:41:47;;;;;;;15.93;10.48;;;;;;;;;;5032465;28;20050;-70
2023/08/24 13:44:13;;;;;;;15.05;10.77;;;;;;;;;;5037848;28;20041;-69
2023/08/24 13:46:39;;;;;;;18.77;10.65;;;;;;;;;;5029444;28;20045;-70
2023/08/24 13:49:05;;;;;;;16.08;10.73;;;;;;;;;;5036225;28;20033;-69
2023/08/24 13:51:31;;;;;;;11.98;10.77;;;;;;;;;;5034370;28;20624;-70
2023/08/24 13:53:57;;;;;;;12.88;10.88;;;;;;;;;;5041002;28;20067;-71
2023/08/24 13:56:23;;;;;;;18.38;11.95;;;;;;;;;;5041345;28;20663;-71
2023/08/24 13:58:49;;;;;;;16.50;11.27;;;;;;;;;;5021864;28;20048;-71
2023/08/24 14:01:15;;;;;;;16.08;11.63;;;;;;;;;;5036963;28;20052;-71
2023/08/24 14:03:43;;;;;;;17.40;11.23;;;;;;;;;;5035134;28;20500;-70
2023/08/24 14:06:10;;;;;;;18.77;11.52;;;;;;;;;;5037704;28;20366;-70
2023/08/24 14:08:36;;;;;;;18.33;12.10;;;;;;;;;;5034674;28;20535;-70
2023/08/24 14:11:03;;;;;;;16.88;11.90;;;;;;;;;;5023700;28;20055;-70
2023/08/24 14:13:30;;;;;;;18.88;11.45;;;;;;;;;;5035648;28;20061;-69
2023/08/24 14:15:57;;;;;;;16.08;12.10;;;;;;;;;;5031984;28;20037;-71
2023/08/24 14:18:23;;;;;;;18.70;12.05;;;;;;;;;;5036416;28;20041;-70
2023/08/24 14:20:49;;;;;;;18.48;11.82;;;;;;;;;;5016633;28;20044;-71
2023/08/24 14:23:15;;;;;;;16.77;11.38;;;;;;;;;;5024600;28;20701;-70
2023/08/24 14:25:41;;;;;;;16.33;11.73;;;;;;;;;;5035578;28;20052;-70
2023/08/24 14:28:08;;;;;;;13.65;11.88;;;;;;;;;;5035654;28;20040;-70
2023/08/24 14:30:34;;;;;;;15.73;12.32;;;;;;;;;;5033808;28;20045;-70